createdAt,value
2016-02-29T00:00:44.168Z,86
2016-02-29T00:01:45.154Z,86
2016-02-29T00:02:46.485Z,86
2016-02-29T00:03:48.035Z,86
2016-02-29T00:04:49.740Z,86
2016-02-29T00:05:51.228Z,86
2016-02-29T00:06:52.746Z,86
2016-02-29T00:07:54.311Z,86
2016-02-29T00:08:55.876Z,86
2016-02-29T00:09:57.458Z,86
2016-02-29T00:10:59.073Z,86
2016-02-29T00:12:00.075Z,86
2016-02-29T00:13:01.640Z,86
2016-02-29T00:14:03.206Z,86
2016-02-29T00:15:04.786Z,86
2016-02-29T00:16:06.461Z,86
2016-02-29T00:17:07.917Z,86
2016-02-29T00:18:09.483Z,86
2016-02-29T00:19:11.063Z,86
2016-02-29T00:20:12.613Z,86
2016-02-29T00:21:14.240Z,86
2016-02-29T00:22:15.289Z,86
2016-02-29T00:23:16.824Z,86
2016-02-29T00:24:18.388Z,86
2016-02-29T00:25:20.079Z,86
2016-02-29T00:26:21.518Z,86
2016-02-29T00:27:23.085Z,86
2016-02-29T00:28:24.649Z,86
2016-02-29T00:29:26.340Z,86
2016-02-29T00:30:27.785Z,86
2016-02-29T00:31:29.443Z,86
2016-02-29T00:32:30.525Z,86
2016-02-29T00:33:31.980Z,86
2016-02-29T00:34:33.545Z,86
2016-02-29T00:35:35.126Z,86
2016-02-29T00:36:36.691Z,86
2016-02-29T00:37:38.256Z,86
2016-02-29T00:38:39.822Z,86
2016-02-29T00:39:41.371Z,86
2016-02-29T00:40:42.952Z,86
2016-02-29T00:41:44.283Z,86
2016-02-29T00:42:45.598Z,86
2016-02-29T00:43:46.897Z,86
2016-02-29T00:44:48.213Z,85
2016-02-29T00:45:49.263Z,85
2016-02-29T00:46:50.312Z,85
2016-02-29T00:47:51.377Z,85
2016-02-29T00:48:52.552Z,85
2016-02-29T00:49:53.523Z,85
2016-02-29T00:50:54.557Z,85
2016-02-29T00:51:55.685Z,85
2016-02-29T00:52:56.687Z,85
2016-02-29T00:53:57.752Z,85
2016-02-29T00:54:58.927Z,85
2016-02-29T00:56:00.010Z,85
2016-02-29T00:57:01.045Z,85
2016-02-29T00:58:02.095Z,85
2016-02-29T00:59:03.003Z,85
2016-02-29T01:00:04.115Z,85
2016-02-29T01:01:05.164Z,85
2016-02-29T01:02:06.292Z,85
2016-02-29T01:03:07.295Z,85
2016-02-29T01:04:08.361Z,85
2016-02-29T01:05:09.534Z,85
2016-02-29T01:06:10.491Z,85
2016-02-29T01:07:11.525Z,85
2016-02-29T01:08:12.589Z,85
2016-02-29T01:09:13.655Z,85
2016-02-29T01:10:14.829Z,85
2016-02-29T01:11:15.785Z,85
2016-02-29T01:12:16.897Z,85
2016-02-29T01:13:17.900Z,85
2016-02-29T01:14:18.966Z,85
2016-02-29T01:15:20.046Z,85
2016-02-29T01:16:21.080Z,85
2016-02-29T01:17:22.146Z,85
2016-02-29T01:18:23.227Z,85
2016-02-29T01:19:24.385Z,85
2016-02-29T01:20:25.340Z,85
2016-02-29T01:21:26.375Z,85
2016-02-29T01:22:27.502Z,85
2016-02-29T01:23:28.646Z,85
2016-02-29T01:24:29.571Z,85
2016-02-29T01:25:30.370Z,85
2016-02-29T01:26:31.201Z,85
2016-02-29T01:27:32.001Z,85
2016-02-29T01:28:32.801Z,85
2016-02-29T01:29:33.598Z,85
2016-02-29T01:30:34.680Z,85
2016-02-29T01:31:35.745Z,85
2016-02-29T01:32:36.592Z,85
2016-02-29T01:33:37.609Z,85
2016-02-29T01:34:38.410Z,85
2016-02-29T01:35:39.225Z,85
2016-02-29T01:36:40.040Z,85
2016-02-29T01:37:40.825Z,85
2016-02-29T01:38:41.670Z,85
2016-02-29T01:39:42.438Z,85
2016-02-29T01:40:43.378Z,85
2016-02-29T01:41:44.053Z,85
2016-02-29T01:42:44.931Z,85
2016-02-29T01:43:45.933Z,85
2016-02-29T01:44:46.749Z,85
2016-02-29T01:45:47.564Z,85
2016-02-29T01:46:48.364Z,85
2016-02-29T01:47:49.272Z,85
2016-02-29T01:48:49.979Z,85
2016-02-29T01:49:50.794Z,85
2016-02-29T01:50:51.593Z,85
2016-02-29T01:51:52.408Z,85
2016-02-29T01:52:53.271Z,85
2016-02-29T01:53:54.368Z,85
2016-02-29T01:54:55.058Z,85
2016-02-29T01:55:55.888Z,85
2016-02-29T01:56:56.688Z,85
2016-02-29T01:57:57.082Z,85
2016-02-29T01:58:58.412Z,85
2016-02-29T01:59:59.118Z,85
2016-02-29T02:00:59.915Z,85
2016-02-29T02:02:00.844Z,85
2016-02-29T02:03:01.534Z,85
2016-02-29T02:04:02.585Z,85
2016-02-29T02:05:03.324Z,85
2016-02-29T02:06:03.836Z,85
2016-02-29T02:07:05.194Z,85
2016-02-29T02:08:06.253Z,85
2016-02-29T02:09:07.297Z,85
2016-02-29T02:10:08.514Z,85
2016-02-29T02:11:09.405Z,85
2016-02-29T02:12:10.484Z,85
2016-02-29T02:13:11.578Z,85
2016-02-29T02:14:12.704Z,85
2016-02-29T02:15:13.643Z,85
2016-02-29T02:16:14.817Z,85
2016-02-29T02:17:15.756Z,85
2016-02-29T02:18:16.992Z,85
2016-02-29T02:19:17.884Z,85
2016-02-29T02:20:18.950Z,85
2016-02-29T02:21:20.030Z,85
2016-02-29T02:22:21.096Z,85
2016-02-29T02:23:22.192Z,85
2016-02-29T02:24:23.195Z,85
2016-02-29T02:25:24.276Z,85
2016-02-29T02:26:25.309Z,85
2016-02-29T02:27:26.390Z,85
2016-02-29T02:28:27.439Z,85
2016-02-29T02:29:28.505Z,85
2016-02-29T02:30:29.679Z,85
2016-02-29T02:31:30.620Z,85
2016-02-29T02:32:31.701Z,85
2016-02-29T02:33:32.922Z,85
2016-02-29T02:34:33.925Z,85
2016-02-29T02:35:34.865Z,85
2016-02-29T02:36:35.930Z,85
2016-02-29T02:37:37.011Z,85
2016-02-29T02:38:38.185Z,85
2016-02-29T02:39:39.110Z,85
2016-02-29T02:40:40.175Z,85
2016-02-29T02:41:41.256Z,85
2016-02-29T02:42:42.290Z,85
2016-02-29T02:43:43.527Z,85
2016-02-29T02:44:44.530Z,85
2016-02-29T02:45:45.470Z,85
2016-02-29T02:46:46.551Z,85
2016-02-29T02:47:47.601Z,85
2016-02-29T02:48:48.665Z,85
2016-02-29T02:49:49.714Z,85
2016-02-29T02:50:50.796Z,85
2016-02-29T02:51:51.845Z,85
2016-02-29T02:52:53.020Z,85
2016-02-29T02:53:54.023Z,85
2016-02-29T02:54:55.134Z,85
2016-02-29T02:55:56.090Z,85
2016-02-29T02:56:57.265Z,85
2016-02-29T02:57:58.205Z,85
2016-02-29T02:58:59.271Z,85
2016-02-29T03:00:00.445Z,85
2016-02-29T03:01:01.386Z,85
2016-02-29T03:02:02.450Z,85
2016-02-29T03:03:03.516Z,85
2016-02-29T03:04:04.628Z,85
2016-02-29T03:05:05.772Z,85
2016-02-29T03:06:06.824Z,85
2016-02-29T03:07:07.764Z,85
2016-02-29T03:08:08.813Z,85
2016-02-29T03:09:09.910Z,85
2016-02-29T03:10:10.944Z,85
2016-02-29T03:11:12.133Z,85
2016-02-29T03:12:13.183Z,85
2016-02-29T03:13:14.124Z,85
2016-02-29T03:14:15.251Z,85
2016-02-29T03:15:16.238Z,85
2016-02-29T03:16:17.460Z,85
2016-02-29T03:17:18.494Z,85
2016-02-29T03:18:19.434Z,85
2016-02-29T03:19:20.530Z,85
2016-02-29T03:20:21.564Z,85
2016-02-29T03:21:22.614Z,85
2016-02-29T03:22:23.678Z,85
2016-02-29T03:23:24.870Z,85
2016-02-29T03:24:25.997Z,85
2016-02-29T03:25:27.000Z,85
2016-02-29T03:26:27.939Z,85
2016-02-29T03:27:29.114Z,85
2016-02-29T03:28:30.211Z,85
2016-02-29T03:29:31.167Z,85
2016-02-29T03:30:32.185Z,85
2016-02-29T03:31:33.250Z,85
2016-02-29T03:32:34.315Z,85
2016-02-29T03:33:35.396Z,85
2016-02-29T03:34:36.509Z,85
2016-02-29T03:35:37.495Z,85
2016-02-29T03:36:38.561Z,85
2016-02-29T03:37:39.750Z,85
2016-02-29T03:38:40.706Z,85
2016-02-29T03:40:42.805Z,85
2016-02-29T03:41:43.870Z,85
2016-02-29T03:42:45.060Z,85
2016-02-29T03:43:46.002Z,85
2016-02-29T03:44:47.113Z,85
2016-02-29T03:45:48.131Z,85
2016-02-29T03:46:49.181Z,85
2016-02-29T03:47:50.246Z,85
2016-02-29T03:48:51.421Z,85
2016-02-29T03:49:52.361Z,85
2016-02-29T03:50:53.551Z,85
2016-02-29T03:51:54.491Z,85
2016-02-29T03:52:55.665Z,85
2016-02-29T03:53:56.638Z,85
2016-02-29T03:54:57.734Z,85
2016-02-29T03:55:58.737Z,85
2016-02-29T03:56:59.754Z,85
2016-02-29T03:58:00.867Z,85
2016-02-29T03:59:01.932Z,85
2016-02-29T04:00:02.982Z,85
2016-02-29T04:01:04.172Z,85
2016-02-29T04:02:05.112Z,85
2016-02-29T04:03:06.178Z,85
2016-02-29T04:04:07.165Z,85
2016-02-29T04:05:08.292Z,85
2016-02-29T04:06:09.376Z,85
2016-02-29T04:07:10.425Z,85
2016-02-29T04:08:11.599Z,85
2016-02-29T04:09:12.539Z,85
2016-02-29T04:10:13.761Z,85
2016-02-29T04:11:14.669Z,85
2016-02-29T04:12:15.844Z,85
2016-02-29T04:13:16.800Z,85
2016-02-29T04:14:17.866Z,85
2016-02-29T04:15:18.977Z,85
2016-02-29T04:16:19.980Z,85
2016-02-29T04:17:21.076Z,85
2016-02-29T04:18:22.111Z,85
2016-02-29T04:19:23.160Z,85
2016-02-29T04:20:24.351Z,85
2016-02-29T04:21:25.432Z,85
2016-02-29T04:22:26.387Z,85
2016-02-29T04:23:27.421Z,85
2016-02-29T04:24:28.470Z,85
2016-02-29T04:25:29.707Z,85
2016-02-29T04:26:30.632Z,85
2016-02-29T04:27:31.651Z,85
2016-02-29T04:28:32.733Z,85
2016-02-29T04:29:33.782Z,85
2016-02-29T04:30:34.847Z,85
2016-02-29T04:31:36.038Z,85
2016-02-29T04:32:36.977Z,85
2016-02-29T04:33:38.152Z,85
2016-02-29T04:34:39.123Z,85
2016-02-29T04:35:40.330Z,85
2016-02-29T04:36:41.223Z,85
2016-02-29T04:37:42.273Z,85
2016-02-29T04:38:43.462Z,85
2016-02-29T04:39:44.528Z,85
2016-02-29T04:40:45.593Z,85
2016-02-29T04:41:46.658Z,85
2016-02-29T04:42:47.707Z,85
2016-02-29T04:43:48.773Z,85
2016-02-29T04:45:50.825Z,85
2016-02-29T04:46:51.828Z,85
2016-02-29T04:47:52.892Z,85
2016-02-29T04:48:54.084Z,85
2016-02-29T04:49:55.039Z,85
2016-02-29T04:50:56.198Z,85
2016-02-29T04:51:57.169Z,85
2016-02-29T04:52:58.313Z,85
2016-02-29T04:53:59.378Z,85
2016-02-29T04:55:00.380Z,85
2016-02-29T04:56:01.602Z,85
2016-02-29T04:57:02.464Z,85
2016-02-29T04:58:03.530Z,85
2016-02-29T04:59:04.610Z,85
2016-02-29T05:00:05.644Z,85
2016-02-29T05:01:06.834Z,85
2016-02-29T05:02:07.775Z,85
2016-02-29T05:03:08.949Z,85
2016-02-29T05:04:09.889Z,85
2016-02-29T05:05:10.970Z,85
2016-02-29T05:06:12.069Z,85
2016-02-29T05:07:13.199Z,85
2016-02-29T05:08:14.249Z,85
2016-02-29T05:09:15.330Z,85
2016-02-29T05:10:16.270Z,85
2016-02-29T05:11:17.460Z,85
2016-02-29T05:12:18.384Z,85
2016-02-29T05:14:20.516Z,85
2016-02-29T05:15:21.690Z,85
2016-02-29T05:16:22.709Z,85
2016-02-29T05:17:23.820Z,85
2016-02-29T05:18:24.807Z,85
2016-02-29T05:19:25.825Z,85
2016-02-29T05:20:26.875Z,85
2016-02-29T05:21:27.940Z,85
2016-02-29T05:22:29.005Z,85
2016-02-29T05:23:30.195Z,85
2016-02-29T05:24:31.245Z,85
2016-02-29T05:25:32.325Z,86
2016-02-29T05:26:33.688Z,85
2016-02-29T05:27:34.738Z,85
2016-02-29T05:28:35.756Z,85
2016-02-29T05:29:36.805Z,85
2016-02-29T05:30:37.871Z,85
2016-02-29T05:31:38.935Z,85
2016-02-29T05:32:40.001Z,85
2016-02-29T05:33:40.942Z,85
2016-02-29T05:34:42.132Z,85
2016-02-29T05:35:43.182Z,85
2016-02-29T05:36:44.184Z,85
2016-02-29T05:37:45.218Z,85
2016-02-29T05:38:46.252Z,85
2016-02-29T05:39:47.443Z,85
2016-02-29T05:40:48.491Z,85
2016-02-29T05:41:49.557Z,85
2016-02-29T05:42:50.606Z,85
2016-02-29T05:43:51.563Z,85
2016-02-29T05:44:52.751Z,85
2016-02-29T05:45:53.802Z,85
2016-02-29T05:46:54.805Z,85
2016-02-29T05:47:55.823Z,85
2016-02-29T05:48:56.982Z,85
2016-02-29T05:49:58.048Z,85
2016-02-29T05:50:59.112Z,85
2016-02-29T05:52:00.178Z,85
2016-02-29T05:53:01.118Z,85
2016-02-29T05:54:02.214Z,85
2016-02-29T05:55:03.248Z,85
2016-02-29T05:56:04.313Z,86
2016-02-29T05:58:06.780Z,86
2016-02-29T05:59:08.113Z,86
2016-02-29T06:00:09.465Z,85
2016-02-29T06:01:14.723Z,85
2016-02-29T06:02:11.553Z,85
2016-02-29T06:03:12.494Z,86
2016-02-29T06:04:13.825Z,86
2016-02-29T06:05:15.139Z,85
2016-02-29T06:06:16.317Z,85
2016-02-29T06:07:17.430Z,85
2016-02-29T06:08:18.447Z,85
2016-02-29T06:09:19.388Z,85
2016-02-29T06:10:20.563Z,85
2016-02-29T06:11:21.613Z,85
2016-02-29T06:12:22.583Z,85
2016-02-29T06:13:23.633Z,85
2016-02-29T06:14:24.682Z,85
2016-02-29T06:15:25.749Z,85
2016-02-29T06:16:26.954Z,85
2016-02-29T06:17:27.941Z,85
2016-02-29T06:18:29.046Z,85
2016-02-29T06:19:30.110Z,86
2016-02-29T06:20:31.301Z,86
2016-02-29T06:21:32.771Z,86
2016-02-29T06:22:34.056Z,86
2016-02-29T06:23:35.371Z,86
2016-02-29T06:24:36.593Z,86
2016-02-29T06:25:38.001Z,86
2016-02-29T06:26:39.317Z,86
2016-02-29T06:27:40.569Z,86
2016-02-29T06:28:41.572Z,86
2016-02-29T06:29:42.918Z,86
2016-02-29T06:30:44.343Z,86
2016-02-29T06:31:45.642Z,86
2016-02-29T06:32:46.848Z,86
2016-02-29T06:33:48.272Z,86
2016-02-29T06:34:49.478Z,86
2016-02-29T06:35:50.778Z,86
2016-02-29T06:36:52.234Z,86
2016-02-29T06:37:53.487Z,86
2016-02-29T06:38:54.599Z,86
2016-02-29T06:39:55.789Z,86
2016-02-29T06:40:57.213Z,86
2016-02-29T06:41:58.560Z,86
2016-02-29T06:42:59.860Z,86
2016-02-29T06:44:01.175Z,86
2016-02-29T06:45:02.474Z,86
2016-02-29T06:46:03.836Z,86
2016-02-29T06:47:05.120Z,86
2016-02-29T06:48:06.483Z,86
2016-02-29T06:49:07.485Z,86
2016-02-29T06:50:08.800Z,86
2016-02-29T06:51:10.006Z,86
2016-02-29T06:52:11.446Z,86
2016-02-29T06:53:12.637Z,86
2016-02-29T06:54:14.060Z,86
2016-02-29T06:55:15.267Z,86
2016-02-29T06:56:16.613Z,86
2016-02-29T06:57:17.944Z,86
2016-02-29T06:58:19.278Z,86
2016-02-29T06:59:20.280Z,86
2016-02-29T07:00:21.705Z,86
2016-02-29T07:01:22.911Z,86
2016-02-29T07:02:24.351Z,86
2016-02-29T07:03:25.650Z,86
2016-02-29T07:04:26.997Z,86
2016-02-29T07:05:28.312Z,86
2016-02-29T07:06:29.752Z,86
2016-02-29T07:07:31.302Z,86
2016-02-29T07:08:32.945Z,86
2016-02-29T07:09:34.072Z,86
2016-02-29T07:10:35.622Z,86
2016-02-29T07:11:37.188Z,86
2016-02-29T07:12:38.752Z,86
2016-02-29T07:13:40.333Z,86
2016-02-29T07:14:41.899Z,86
2016-02-29T07:15:43.355Z,86
2016-02-29T07:16:44.919Z,86
2016-02-29T07:17:46.500Z,86
2016-02-29T07:18:48.113Z,86
2016-02-29T07:19:49.272Z,86
2016-02-29T07:20:50.712Z,86
2016-02-29T07:21:52.371Z,86
2016-02-29T07:22:53.826Z,86
2016-02-29T07:23:55.407Z,86
2016-02-29T07:24:56.973Z,86
2016-02-29T07:25:58.537Z,87
2016-02-29T07:26:56.307Z,87
2016-02-29T07:27:54.199Z,87
2016-02-29T07:28:51.905Z,87
2016-02-29T07:29:53.032Z,87
2016-02-29T07:30:50.785Z,87
2016-02-29T07:31:48.445Z,87
2016-02-29T07:32:46.244Z,87
2016-02-29T07:33:43.981Z,87
2016-02-29T07:34:41.906Z,87
2016-02-29T07:35:39.533Z,87
2016-02-29T07:36:37.411Z,87
2016-02-29T07:37:35.320Z,87
2016-02-29T07:38:33.150Z,87
2016-02-29T07:39:34.279Z,87
2016-02-29T07:40:32.297Z,87
2016-02-29T07:41:29.940Z,87
2016-02-29T07:42:28.083Z,87
2016-02-29T07:43:25.992Z,87
2016-02-29T07:44:24.011Z,87
2016-02-29T07:45:22.155Z,87
2016-02-29T07:46:20.155Z,87
2016-02-29T07:47:18.188Z,87
2016-02-29T07:48:16.144Z,87
2016-02-29T07:49:17.288Z,87
2016-02-29T07:50:15.290Z,87
2016-02-29T07:51:13.308Z,87
2016-02-29T07:52:11.216Z,87
2016-02-29T07:53:09.376Z,87
2016-02-29T07:54:07.269Z,87
2016-02-29T07:55:05.288Z,87
2016-02-29T07:56:03.306Z,87
2016-02-29T07:57:01.449Z,87
2016-02-29T07:57:59.405Z,87
2016-02-29T07:59:00.408Z,87
2016-02-29T07:59:58.442Z,87
2016-02-29T08:00:56.445Z,87
2016-02-29T08:01:54.587Z,87
2016-02-29T08:02:52.606Z,87
2016-02-29T08:03:50.514Z,87
2016-02-29T08:04:48.658Z,87
2016-02-29T08:05:46.677Z,87
2016-02-29T08:06:44.570Z,87
2016-02-29T08:07:42.650Z,87
2016-02-29T08:08:43.700Z,87
2016-02-29T08:09:41.844Z,87
2016-02-29T08:10:39.737Z,87
2016-02-29T08:11:37.865Z,87
2016-02-29T08:12:35.961Z,87
2016-02-29T08:13:33.901Z,87
2016-02-29T08:14:31.794Z,87
2016-02-29T08:15:29.828Z,87
2016-02-29T08:16:27.846Z,87
2016-02-29T08:17:25.911Z,87
2016-02-29T08:18:26.930Z,87
2016-02-29T08:19:24.933Z,87
2016-02-29T08:20:22.966Z,87
2016-02-29T08:21:21.107Z,87
2016-02-29T08:22:19.126Z,87
2016-02-29T08:23:17.018Z,87
2016-02-29T08:24:15.163Z,87
2016-02-29T08:25:13.119Z,87
2016-02-29T08:26:11.105Z,87
2016-02-29T08:27:09.280Z,87
2016-02-29T08:28:10.299Z,87
2016-02-29T08:29:08.348Z,87
2016-02-29T08:30:06.209Z,87
2016-02-29T08:31:04.353Z,87
2016-02-29T08:32:02.263Z,87
2016-02-29T08:33:00.406Z,87
2016-02-29T08:33:58.424Z,87
2016-02-29T08:34:56.442Z,87
2016-02-29T08:35:54.460Z,87
2016-02-29T08:36:52.431Z,87
2016-02-29T08:37:53.544Z,87
2016-02-29T08:38:51.453Z,87
2016-02-29T08:39:49.581Z,87
2016-02-29T08:41:45.648Z,87
2016-02-29T08:42:43.683Z,87
2016-02-29T08:43:41.575Z,87
2016-02-29T08:44:39.595Z,87
2016-02-29T08:45:37.769Z,87
2016-02-29T08:46:35.694Z,87
2016-02-29T08:47:36.696Z,87
2016-02-29T08:48:34.964Z,87
2016-02-29T08:49:32.732Z,87
2016-02-29T08:50:30.875Z,87
2016-02-29T08:51:28.784Z,87
2016-02-29T08:52:26.803Z,87
2016-02-29T08:53:24.947Z,87
2016-02-29T08:54:22.853Z,87
2016-02-29T08:55:20.871Z,87
2016-02-29T08:56:19.061Z,87
2016-02-29T08:57:19.954Z,87
2016-02-29T08:58:18.098Z,87
2016-02-29T08:59:16.115Z,87
2016-02-29T09:00:14.024Z,87
2016-02-29T09:01:12.169Z,87
2016-02-29T09:02:10.187Z,87
2016-02-29T09:03:08.096Z,87
2016-02-29T09:04:06.223Z,87
2016-02-29T09:05:04.272Z,87
2016-02-29T09:06:02.150Z,87
2016-02-29T09:07:03.340Z,87
2016-02-29T09:08:01.233Z,87
2016-02-29T09:08:59.377Z,87
2016-02-29T09:09:57.269Z,87
2016-02-29T09:10:55.428Z,87
2016-02-29T09:11:53.321Z,87
2016-02-29T09:12:51.527Z,87
2016-02-29T09:13:49.358Z,87
2016-02-29T09:14:47.393Z,87
2016-02-29T09:15:45.583Z,87
2016-02-29T09:16:46.585Z,87
2016-02-29T09:17:44.493Z,87
2016-02-29T09:18:42.513Z,87
2016-02-29T09:19:40.688Z,87
2016-02-29T09:20:38.565Z,87
2016-02-29T09:21:36.599Z,87
2016-02-29T09:22:34.601Z,87
2016-02-29T09:23:32.792Z,87
2016-02-29T09:24:30.637Z,87
2016-02-29T09:25:28.734Z,87
2016-02-29T09:26:29.722Z,87
2016-02-29T09:27:27.740Z,87
2016-02-29T09:28:25.881Z,87
2016-02-29T09:29:23.899Z,87
2016-02-29T09:30:21.808Z,87
2016-02-29T09:32:17.859Z,87
2016-02-29T09:33:15.863Z,87
2016-02-29T09:34:13.881Z,87
2016-02-29T09:35:12.087Z,87
2016-02-29T09:36:13.089Z,87
2016-02-29T09:37:11.108Z,87
2016-02-29T09:38:09.158Z,87
2016-02-29T09:39:07.051Z,87
2016-02-29T09:40:05.069Z,87
2016-02-29T09:41:03.088Z,87
2016-02-29T09:42:01.121Z,87
2016-02-29T09:42:59.202Z,87
2016-02-29T09:43:57.516Z,87
2016-02-29T09:44:55.519Z,87
2016-02-29T09:45:56.616Z,87
2016-02-29T09:46:54.525Z,87
2016-02-29T10:17:05.105Z,87
2016-02-29T10:18:03.139Z,87
2016-02-29T10:19:01.236Z,87
2016-02-29T10:19:59.067Z,87
2016-02-29T10:20:57.179Z,87
2016-02-29T10:21:55.181Z,87
2016-02-29T10:22:53.231Z,87
2016-02-29T10:23:51.389Z,87
2016-02-29T10:24:52.283Z,87
2016-02-29T10:25:50.333Z,87
2016-02-29T10:26:48.336Z,87
2016-02-29T10:27:46.353Z,87
2016-02-29T10:28:44.481Z,87
2016-02-29T10:29:42.390Z,87
2016-02-29T10:30:40.518Z,87
2016-02-29T10:31:38.458Z,87
2016-02-29T10:32:36.445Z,87
2016-02-29T10:33:34.260Z,87
2016-02-29T10:34:35.263Z,87
2016-02-29T10:35:33.281Z,87
2016-02-29T10:36:31.050Z,87
2016-02-29T10:37:29.068Z,87
2016-02-29T10:38:26.852Z,87
2016-02-29T10:39:24.621Z,87
2016-02-29T10:40:22.404Z,87
2016-02-29T10:41:20.157Z,87
2016-02-29T10:43:15.756Z,87
2016-02-29T10:44:16.759Z,87
2016-02-29T10:45:14.527Z,87
2016-02-29T10:46:12.293Z,87
2016-02-29T10:47:10.030Z,87
2016-02-29T10:48:07.813Z,87
2016-02-29T10:49:05.566Z,87
2016-02-29T10:50:03.335Z,87
2016-02-29T10:51:01.118Z,87
2016-02-29T10:51:59.012Z,87
2016-02-29T10:52:56.718Z,87
2016-02-29T10:53:57.798Z,87
2016-02-29T10:54:55.582Z,87
2016-02-29T10:55:53.273Z,87
2016-02-29T10:56:51.259Z,87
2016-02-29T10:57:49.278Z,87
2016-02-29T10:58:47.172Z,87
2016-02-29T10:59:45.189Z,87
2016-02-29T11:00:43.083Z,87
2016-02-29T11:02:39.183Z,87
2016-02-29T11:03:40.185Z,87
2016-02-29T11:04:38.203Z,87
2016-02-29T11:05:36.227Z,88
2016-02-29T11:06:34.616Z,88
2016-02-29T11:07:32.765Z,88
2016-02-29T11:08:31.022Z,88
2016-02-29T11:09:29.655Z,88
2016-02-29T11:10:28.052Z,88
2016-02-29T11:11:26.576Z,88
2016-02-29T11:12:25.153Z,88
2016-02-29T11:13:26.262Z,88
2016-02-29T11:14:24.791Z,88
2016-02-29T11:15:23.182Z,88
2016-02-29T11:16:21.946Z,88
2016-02-29T11:17:20.744Z,88
2016-02-29T11:18:19.511Z,89
2016-02-29T11:19:18.667Z,89
2016-02-29T11:20:17.575Z,89
2016-02-29T11:21:16.608Z,89
2016-02-29T11:22:15.688Z,88
2016-02-29T11:23:16.690Z,88
2016-02-29T11:24:15.473Z,88
2016-02-29T11:25:14.303Z,89
2016-02-29T11:26:13.290Z,89
2016-02-29T11:27:12.324Z,89
2016-02-29T11:28:11.373Z,89
2016-02-29T11:29:10.390Z,89
2016-02-29T11:30:09.534Z,89
2016-02-29T11:31:08.458Z,89
2016-02-29T11:32:07.554Z,89
2016-02-29T11:33:08.541Z,89
2016-02-29T11:34:07.513Z,89
2016-02-29T11:35:06.578Z,89
2016-02-29T11:36:06.158Z,89
2016-02-29T11:37:05.458Z,89
2016-02-29T11:38:05.117Z,89
2016-02-29T11:39:04.635Z,89
2016-02-29T11:40:04.060Z,89
2016-02-29T11:41:03.610Z,89
2016-02-29T11:42:03.252Z,89
2016-02-29T11:43:04.333Z,89
2016-02-29T11:44:03.758Z,89
2016-02-29T11:45:03.276Z,89
2016-02-29T11:46:02.826Z,89
2016-02-29T11:47:02.484Z,89
2016-02-29T11:48:02.019Z,90
2016-02-29T11:49:01.709Z,90
2016-02-29T11:50:01.493Z,90
2016-02-29T11:51:01.309Z,90
2016-02-29T11:52:01.139Z,90
2016-02-29T11:53:02.142Z,90
2016-02-29T11:54:01.926Z,90
2016-02-29T11:55:01.976Z,90
2016-02-29T11:56:02.025Z,90
2016-02-29T11:57:02.075Z,90
2016-02-29T11:58:02.123Z,90
2016-02-29T11:59:02.158Z,90
2016-02-29T12:00:02.348Z,90
2016-02-29T12:01:02.257Z,90
2016-02-29T12:02:02.353Z,90
2016-02-29T12:03:03.497Z,90
2016-02-29T12:04:03.405Z,90
2016-02-29T12:05:03.455Z,90
2016-02-29T12:06:03.505Z,90
2016-02-29T12:07:03.555Z,90
2016-02-29T12:08:03.714Z,90
2016-02-29T12:09:03.638Z,90
2016-02-29T12:10:03.703Z,90
2016-02-29T12:11:04.252Z,90
2016-02-29T12:12:03.849Z,90
2016-02-29T12:13:04.961Z,90
2016-02-29T12:14:05.011Z,90
2016-02-29T12:15:04.935Z,90
2016-02-29T12:16:04.985Z,90
2016-02-29T12:17:05.035Z,90
2016-02-29T12:18:05.085Z,91
2016-02-29T12:19:05.430Z,90
2016-02-29T12:20:05.418Z,91
2016-02-29T12:21:05.718Z,91
2016-02-29T12:22:06.079Z,91
2016-02-29T12:23:07.207Z,91
2016-02-29T12:24:07.507Z,91
2016-02-29T12:25:07.681Z,91
2016-02-29T12:26:08.106Z,91
2016-02-29T12:27:08.295Z,91
2016-02-29T12:28:08.595Z,91
2016-02-29T12:29:08.895Z,91
2016-02-29T12:30:09.444Z,91
2016-02-29T12:31:09.744Z,91
2016-02-29T12:32:10.356Z,91
2016-02-29T12:33:11.467Z,91
2016-02-29T12:34:11.909Z,91
2016-02-29T12:35:12.473Z,91
2016-02-29T12:36:13.039Z,91
2016-02-29T12:37:13.698Z,91
2016-02-29T12:38:14.122Z,91
2016-02-29T12:39:14.797Z,91
2016-02-29T12:40:15.346Z,91
2016-02-29T12:41:15.819Z,91
2016-02-29T12:42:16.399Z,91
2016-02-29T12:43:17.402Z,91
2016-02-29T12:44:18.107Z,91
2016-02-29T12:45:18.625Z,91
2016-02-29T12:46:19.065Z,91
2016-02-29T12:47:19.725Z,91
2016-02-29T12:48:20.165Z,91
2016-02-29T12:49:20.715Z,91
2016-02-29T12:50:21.388Z,91
2016-02-29T12:51:21.954Z,91
2016-02-29T12:52:22.457Z,91
2016-02-29T12:53:23.444Z,91
2016-02-29T12:54:24.103Z,91
2016-02-29T12:55:24.543Z,91
2016-02-29T12:56:25.109Z,91
2016-02-29T12:57:25.657Z,91
2016-02-29T12:58:26.207Z,91
2016-02-29T12:59:26.756Z,91
2016-02-29T13:00:27.306Z,91
2016-02-29T13:01:27.856Z,91
2016-02-29T13:02:28.593Z,91
2016-02-29T13:03:29.502Z,91
2016-02-29T13:04:30.145Z,91
2016-02-29T13:05:30.579Z,91
2016-02-29T13:06:31.159Z,91
2016-02-29T13:07:31.818Z,91
2016-02-29T13:08:32.367Z,91
2016-02-29T13:09:32.792Z,91
2016-02-29T13:10:33.342Z,91
2016-02-29T13:11:33.954Z,91
2016-02-29T13:12:34.520Z,91
2016-02-29T13:13:35.522Z,91
2016-02-29T13:14:36.072Z,91
2016-02-29T13:15:36.621Z,91
2016-02-29T13:16:37.295Z,91
2016-02-29T13:17:37.736Z,91
2016-02-29T13:18:38.395Z,91
2016-02-29T13:19:38.835Z,91
2016-02-29T13:20:39.385Z,91
2016-02-29T13:21:39.949Z,91
2016-02-29T13:22:40.655Z,91
2016-02-29T13:23:41.549Z,91
2016-02-29T13:24:42.099Z,91
2016-02-29T13:25:42.789Z,91
2016-02-29T13:26:43.213Z,91
2016-02-29T13:27:43.997Z,91
2016-02-29T13:28:44.468Z,91
2016-02-29T13:29:44.877Z,91
2016-02-29T13:30:45.537Z,91
2016-02-29T13:31:46.008Z,91
2016-02-29T13:32:46.588Z,91
2016-02-29T13:33:47.591Z,91
2016-02-29T13:34:48.141Z,91
2016-02-29T13:35:48.706Z,91
2016-02-29T13:36:49.256Z,91
2016-02-29T13:37:49.806Z,91
2016-02-29T13:38:50.355Z,91
2016-02-29T13:39:50.904Z,91
2016-02-29T13:40:51.579Z,91
2016-02-29T13:41:52.003Z,91
2016-02-29T13:42:52.632Z,91
2016-02-29T13:43:53.634Z,91
2016-02-29T13:44:54.231Z,91
2016-02-29T13:45:54.842Z,91
2016-02-29T13:46:55.298Z,91
2016-02-29T13:47:55.847Z,91
2016-02-29T13:48:56.663Z,91
2016-02-29T13:49:57.212Z,91
2016-02-29T13:50:58.012Z,91
2016-02-29T13:51:58.577Z,91
2016-02-29T13:52:59.424Z,91
2016-02-29T13:54:00.441Z,91
2016-02-29T13:55:01.257Z,91
2016-02-29T13:56:02.058Z,91
2016-02-29T13:57:02.997Z,91
2016-02-29T13:58:03.422Z,91
2016-02-29T13:59:04.221Z,91
2016-02-29T14:00:04.771Z,91
2016-02-29T14:01:05.570Z,91
2016-02-29T14:02:06.402Z,91
2016-02-29T14:03:07.263Z,91
2016-02-29T14:04:08.251Z,91
2016-02-29T14:05:09.081Z,91
2016-02-29T14:06:09.881Z,91
2016-02-29T14:07:10.789Z,91
2016-02-29T14:08:11.479Z,91
2016-02-29T14:09:12.279Z,91
2016-02-29T14:10:13.204Z,91
2016-02-29T14:11:13.894Z,91
2016-02-29T14:12:14.303Z,91
2016-02-29T14:13:15.602Z,91
2016-02-29T14:14:16.683Z,91
2016-02-29T14:15:17.373Z,91
2016-02-29T14:16:18.220Z,91
2016-02-29T14:17:18.989Z,91
2016-02-29T14:18:19.803Z,91
2016-02-29T14:19:20.728Z,91
2016-02-29T14:20:21.403Z,91
2016-02-29T14:21:22.218Z,91
2016-02-29T14:22:23.017Z,91
2016-02-29T14:23:23.880Z,91
2016-02-29T14:24:24.897Z,91
2016-02-29T14:25:25.713Z,92
2016-02-29T14:26:26.746Z,91
2016-02-29T14:27:27.563Z,91
2016-02-29T14:28:28.486Z,91
2016-02-29T14:29:29.286Z,91
2016-02-29T14:30:29.976Z,91
2016-02-29T14:31:30.916Z,91
2016-02-29T14:32:31.732Z,91
2016-02-29T14:33:32.469Z,91
2016-02-29T14:34:33.471Z,91
2016-02-29T14:35:34.287Z,91
2016-02-29T14:36:35.074Z,91
2016-02-29T14:37:35.888Z,91
2016-02-29T14:38:36.688Z,91
2016-02-29T14:39:37.504Z,91
2016-02-29T14:40:38.303Z,91
2016-02-29T14:41:39.118Z,91
2016-02-29T14:42:39.934Z,91
2016-02-29T14:43:40.795Z,92
2016-02-29T14:44:41.782Z,92
2016-02-29T14:45:42.848Z,92
2016-02-29T14:46:43.912Z,92
2016-02-29T14:47:44.962Z,92
2016-02-29T14:48:46.043Z,92
2016-02-29T14:49:47.092Z,92
2016-02-29T14:50:48.267Z,92
2016-02-29T14:51:49.208Z,92
2016-02-29T14:52:50.257Z,92
2016-02-29T14:53:51.385Z,92
2016-02-29T14:54:52.371Z,92
2016-02-29T14:55:53.436Z,92
2016-02-29T14:56:54.611Z,92